Time;durP1;ratioP1;P1;durP2;ratioP2;P2;SDS_P1;SDS_P2;PMS_P1;PMS_P2;Temp;Humidity;BMP_temperature;BMP_pressure;BME280_temperature;BME280_humidity;BME280_pressure;Samples;Min_cycle;Max_cycle;Signal;HPM_P1;HPM_P2
2022/06/06 00:01:57;;;;;;;9.27;7.90;;;;;;;16.25;100.00;156603.00;4943234;28;20099;-81
2022/06/06 00:04:24;;;;;;;11.27;8.18;;;;;;;16.22;100.00;156595.25;4954520;28;20425;-85
2022/06/06 00:06:58;;;;;;;12.32;7.88;;;;;;;16.22;100.00;156595.25;4942882;29;20520;-83
2022/06/06 00:09:25;;;;;;;9.55;8.52;;;;;;;16.19;100.00;156588.84;4962768;28;20035;-85
2022/06/06 00:11:51;;;;;;;10.25;8.05;;;;;;;16.21;100.00;156593.97;4935513;28;20475;-84
2022/06/06 00:14:18;;;;;;;15.90;9.60;;;;;;;16.03;100.00;156548.94;4935895;29;20043;-82
2022/06/06 00:16:43;;;;;;;10.63;9.50;;;;;;;15.99;100.00;156537.34;4952457;28;20038;-83
2022/06/06 00:19:11;;;;;;;13.38;10.25;;;;;;;15.76;100.00;156480.72;4920362;29;20367;-85
2022/06/06 00:21:38;;;;;;;16.38;10.15;;;;;;;15.62;100.00;156444.66;4929772;28;20307;-83
2022/06/06 00:24:04;;;;;;;19.42;10.70;;;;;;;15.59;100.00;156438.19;4928134;29;20058;-84
2022/06/06 00:26:32;;;;;;;14.95;10.38;;;;;;;15.52;100.00;156420.16;4958400;28;20266;-85
2022/06/06 00:28:58;;;;;;;13.93;11.30;;;;;;;15.34;100.00;156375.16;4945563;29;20069;-86
2022/06/06 00:36:58;;;;;;;13.10;10.75;;;;;;;15.32;100.00;156370.00;4943920;29;20066;-85
2022/06/06 00:39:24;;;;;;;12.82;11.23;;;;;;;15.28;100.00;156359.72;4949316;28;20046;-83
2022/06/06 00:41:53;;;;;;;14.70;11.38;;;;;;;15.24;100.00;156349.41;4946071;28;20109;-85
2022/06/06 00:44:23;;;;;;;12.10;10.90;;;;;;;15.27;100.00;156357.13;4933931;29;20053;-81
2022/06/06 00:46:55;;;;;;;14.23;11.45;;;;;;;15.29;100.00;156362.28;4931286;29;20040;-83
2022/06/06 00:49:26;;;;;;;14.37;11.70;;;;;;;15.25;100.00;156353.25;4944233;28;20066;-85
2022/06/06 00:51:54;;;;;;;14.93;11.63;;;;;;;15.23;100.00;156348.13;4952418;29;20042;-84
2022/06/06 00:54:22;;;;;;;13.70;11.73;;;;;;;15.23;100.00;156346.84;4941670;29;20031;-81
2022/06/06 00:56:55;;;;;;;13.68;12.27;;;;;;;15.25;100.00;156352.00;4962405;28;20023;-80
2022/06/06 00:59:25;;;;;;;15.35;12.50;;;;;;;15.28;100.00;156361.00;4948408;28;20055;-85
2022/06/06 01:01:52;;;;;;;14.18;12.68;;;;;;;15.29;100.00;156362.28;4963303;28;20039;-83
2022/06/06 01:04:20;;;;;;;16.95;13.18;;;;;;;15.25;100.00;156352.00;4932800;29;20027;-86
2022/06/06 01:06:46;;;;;;;14.32;12.63;;;;;;;15.30;100.00;156364.88;4934515;29;20115;-85
2022/06/06 01:09:14;;;;;;;14.18;12.82;;;;;;;15.34;100.00;156376.44;4931548;29;20044;-79
2022/06/06 01:11:44;;;;;;;16.38;12.85;;;;;;;15.32;100.00;156370.00;4942483;28;20175;-84
2022/06/06 01:14:14;;;;;;;15.05;13.43;;;;;;;15.29;100.00;156362.28;4931290;29;20035;-84
2022/06/06 01:16:40;;;;;;;16.73;14.43;;;;;;;15.34;100.00;156375.16;4928261;28;20031;-85
2022/06/06 01:19:44;;;;;;;15.48;13.88;;;;;;;15.34;100.00;156375.16;4946531;28;20051;-85
2022/06/06 01:22:38;;;;;;;17.98;13.98;;;;;;;15.36;100.00;156381.56;4936582;28;20858;-84
2022/06/06 01:25:26;;;;;;;15.80;14.02;;;;;;;15.45;100.00;156403.47;4941821;29;20422;-84
2022/06/06 01:28:03;;;;;;;17.40;15.40;;;;;;;15.39;100.00;156388.03;4943551;28;20136;-85
2022/06/06 01:30:39;;;;;;;17.13;15.07;;;;;;;15.46;100.00;156406.00;4937498;29;20510;-85
2022/06/06 01:33:09;;;;;;;17.10;15.30;;;;;;;15.42;100.00;156394.44;4930206;29;20035;-84
2022/06/06 01:35:39;;;;;;;17.33;15.38;;;;;;;15.46;100.00;156404.72;4925943;28;20502;-84
2022/06/06 01:38:05;;;;;;;21.85;15.50;;;;;;;15.44;100.00;156400.88;4943531;28;20045;-86
2022/06/06 01:40:42;;;;;;;17.20;15.40;;;;;;;15.45;100.00;156402.19;4931539;29;20376;-81
2022/06/06 01:43:14;;;;;;;19.15;16.08;;;;;;;15.49;100.00;156412.47;4945420;29;20102;-86
2022/06/06 01:45:54;;;;;;;19.52;17.52;;;;;;;15.42;100.00;156395.72;4952342;28;20039;-84
2022/06/06 01:48:23;;;;;;;21.80;16.48;;;;;;;15.44;100.00;156399.59;4947072;29;20047;-84
2022/06/06 01:50:50;;;;;;;19.50;17.45;;;;;;;15.44;100.00;156400.88;4923502;28;20035;-84
2022/06/06 01:53:19;;;;;;;22.45;18.92;;;;;;;15.42;100.00;156394.44;4943373;28;20039;-85
2022/06/06 01:55:49;;;;;;;20.40;18.27;;;;;;;15.43;100.00;156397.03;4936250;28;20031;-83
2022/06/06 01:58:21;;;;;;;21.90;19.60;;;;;;;15.50;100.00;156415.03;4945591;28;20098;-83
2022/06/06 02:00:47;;;;;;;20.77;18.58;;;;;;;15.50;100.00;156416.34;4936131;29;20039;-82
2022/06/06 02:03:13;;;;;;;22.38;19.95;;;;;;;15.53;100.00;156424.03;4931082;29;20035;-81
2022/06/06 02:05:39;;;;;;;23.05;19.45;;;;;;;15.61;100.00;156443.34;4940661;28;20520;-85
2022/06/06 02:08:06;;;;;;;21.95;19.52;;;;;;;15.66;100.00;156454.94;4934605;29;20035;-83
2022/06/06 02:10:31;;;;;;;23.58;18.70;;;;;;;15.69;100.00;156463.94;4943275;29;20050;-81
2022/06/06 02:12:57;;;;;;;21.23;18.27;;;;;;;15.76;100.00;156482.03;4927791;29;20449;-86
2022/06/06 02:15:24;;;;;;;20.20;18.15;;;;;;;15.87;100.00;156507.75;4939365;29;20482;-85
2022/06/06 02:17:51;;;;;;;20.50;17.98;;;;;;;15.83;100.00;156498.72;4951188;28;20103;-85
2022/06/06 02:20:19;;;;;;;15.77;14.13;;;;;;;15.91;100.00;156519.31;4936964;29;20043;-85
2022/06/06 02:22:45;;;;;;;13.98;12.63;;;;;;;15.93;100.00;156523.19;4929521;28;20121;-84
2022/06/06 02:25:12;;;;;;;11.10;10.10;;;;;;;16.02;100.00;156545.09;4961226;28;20061;-84
2022/06/06 02:27:40;;;;;;;8.82;7.93;;;;;;;15.96;100.00;156532.19;4944199;28;20047;-84
2022/06/06 02:30:15;;;;;;;7.30;6.60;;;;;;;15.90;100.00;156516.75;4950664;29;20043;-83
2022/06/06 02:32:42;;;;;;;7.47;6.70;;;;;;;15.94;100.00;156527.06;4948320;28;20050;-79
2022/06/06 02:35:14;;;;;;;7.20;6.53;;;;;;;15.97;100.00;156533.47;4947987;29;20043;-86
2022/06/06 02:37:41;;;;;;;;;;;;;;;15.88;100.00;156511.63;4953780;28;20050;-85
2022/06/06 02:40:09;;;;;;;9.07;6.57;;;;;;;15.88;100.00;156510.28;4918969;29;19914;-83
2022/06/06 02:42:35;;;;;;;6.75;6.15;;;;;;;15.79;100.00;156488.44;4940195;29;20044;-84
2022/06/06 02:45:02;;;;;;;5.90;5.40;;;;;;;15.83;100.00;156497.47;4938713;29;20031;-85
2022/06/06 02:47:29;;;;;;;7.28;5.68;;;;;;;15.81;100.00;156492.31;4942061;28;20035;-85
2022/06/06 02:49:55;;;;;;;5.95;5.35;;;;;;;15.83;100.00;156497.47;4943118;28;20409;-86
2022/06/06 02:52:21;;;;;;;6.72;6.03;;;;;;;15.75;100.00;156479.44;4943996;29;20039;-82
2022/06/06 02:54:47;;;;;;;6.25;5.65;;;;;;;15.71;100.00;156469.09;4926543;29;20050;-83
2022/06/06 02:57:13;;;;;;;6.88;6.03;;;;;;;15.69;100.00;156463.94;4945095;29;20501;-79
2022/06/06 02:59:41;;;;;;;7.13;6.20;;;;;;;15.77;100.00;156483.31;4957794;28;20039;-86
2022/06/06 03:02:08;;;;;;;7.18;6.47;;;;;;;15.75;100.00;156478.16;4946416;28;20034;-86
2022/06/06 03:04:34;;;;;;;8.40;6.25;;;;;;;15.71;100.00;156469.09;4942902;28;20046;-86
2022/06/06 03:07:28;;;;;;;7.72;7.03;;;;;;;15.79;100.00;156488.44;4947808;29;20035;-83
2022/06/06 03:10:18;;;;;;;7.10;6.50;;;;;;;15.79;100.00;156487.16;4941197;28;20030;-85
2022/06/06 03:13:04;;;;;;;8.27;7.55;;;;;;;15.72;100.00;156470.38;4937409;28;20039;-83
2022/06/06 03:22:05;;;;;;;9.05;8.13;;;;;;;15.77;100.00;156483.31;4943064;29;20470;-85
2022/06/06 03:24:37;;;;;;;9.38;8.48;;;;;;;15.76;100.00;156480.72;4956372;28;20039;-80
2022/06/06 03:27:22;;;;;;;9.05;8.15;;;;;;;15.75;100.00;156478.16;4943143;29;20125;-86
2022/06/06 03:29:56;;;;;;;9.50;8.60;;;;;;;15.72;100.00;156471.63;4956681;28;20043;-84
2022/06/06 03:32:34;;;;;;;9.88;8.82;;;;;;;15.73;100.00;156472.97;4966569;28;20499;-84
2022/06/06 03:35:25;;;;;;;10.63;8.52;;;;;;;15.67;100.00;156457.47;4926082;29;20046;-84
2022/06/06 03:38:01;;;;;;;12.52;10.05;;;;;;;15.63;100.00;156447.19;4944093;28;20038;-84
2022/06/06 03:40:53;;;;;;;9.60;8.57;;;;;;;15.61;100.00;156443.34;4925157;29;20118;-82
2022/06/06 03:43:29;;;;;;;10.30;9.30;;;;;;;15.63;100.00;156448.47;4921911;29;20061;-86
2022/06/06 03:46:26;;;;;;;10.50;8.93;;;;;;;15.65;100.00;156453.66;4942282;28;20031;-86
2022/06/06 03:49:00;;;;;;;9.73;8.73;;;;;;;15.66;100.00;156454.94;4958310;28;20049;-85
2022/06/06 03:51:49;;;;;;;10.45;9.05;;;;;;;15.63;100.00;156448.47;4939015;28;20083;-81
2022/06/06 03:54:55;;;;;;;10.23;9.23;;;;;;;15.54;100.00;156426.63;4929068;29;20465;-85
2022/06/06 03:57:26;;;;;;;10.32;9.30;;;;;;;15.57;100.00;156434.31;4898967;29;20047;-84
2022/06/06 03:59:57;;;;;;;10.70;9.70;;;;;;;15.57;100.00;156434.31;4963419;28;20528;-85
2022/06/06 04:02:31;;;;;;;12.30;9.68;;;;;;;15.54;100.00;156426.63;4941580;28;20452;-84
2022/06/06 04:05:02;;;;;;;9.65;8.75;;;;;;;15.48;100.00;156411.19;4945798;28;20030;-84
2022/06/06 04:07:28;;;;;;;9.80;8.80;;;;;;;15.47;100.00;156408.59;4920288;29;20047;-84
2022/06/06 04:09:54;;;;;;;11.77;9.82;;;;;;;15.48;100.00;156411.19;4964529;28;20661;-84
2022/06/06 04:13:10;;;;;;;11.25;9.02;;;;;;;15.48;100.00;156411.19;4934362;29;20078;-85
2022/06/06 04:15:57;;;;;;;10.30;8.85;;;;;;;15.49;100.00;156412.47;4883216;29;20511;-84
2022/06/06 04:18:32;;;;;;;10.82;8.75;;;;;;;15.47;100.00;156407.34;4912204;29;20049;-84
2022/06/06 04:21:12;;;;;;;10.68;8.63;;;;;;;15.44;100.00;156400.88;4953476;28;20388;-84
2022/06/06 04:24:06;;;;;;;9.13;7.97;;;;;;;15.40;100.00;156389.31;4954158;28;20118;-83
2022/06/06 04:26:47;;;;;;;8.80;7.90;;;;;;;15.40;100.00;156389.31;4935716;28;20048;-81
2022/06/06 04:29:32;;;;;;;9.18;8.23;;;;;;;15.34;100.00;156376.44;4952838;28;20082;-81
2022/06/06 04:32:10;;;;;;;9.02;8.23;;;;;;;15.31;100.00;156367.41;4937953;28;20050;-84
2022/06/06 04:34:49;;;;;;;10.40;7.53;;;;;;;15.28;100.00;156359.72;4946895;28;20043;-85
2022/06/06 04:37:20;;;;;;;8.82;7.55;;;;;;;15.34;100.00;156376.44;4930804;29;20043;-83
2022/06/06 04:40:25;;;;;;;11.55;7.20;;;;;;;15.48;100.00;156409.88;4947871;28;20059;-85
2022/06/06 04:43:14;;;;;;;10.43;7.32;;;;;;;15.73;100.00;156474.28;4944222;28;20078;-80
2022/06/06 04:46:03;;;;;;;7.93;7.10;;;;;;;15.74;100.00;156475.56;4954752;28;20058;-83
2022/06/06 04:48:29;;;;;;;10.48;6.90;;;;;;;15.78;100.00;156485.84;4918805;29;20075;-84
2022/06/06 04:50:56;;;;;;;8.80;7.78;;;;;;;15.82;100.00;156494.88;4957899;28;20027;-81
2022/06/06 04:53:24;;;;;;;10.40;7.07;;;;;;;15.76;100.00;156480.72;4937932;29;20981;-83
2022/06/06 04:55:51;;;;;;;10.98;7.45;;;;;;;15.70;100.00;156466.50;4942246;28;20050;-82
2022/06/06 04:58:20;;;;;;;9.88;7.78;;;;;;;15.65;100.00;156452.34;4927914;29;20063;-81
2022/06/06 05:00:46;;;;;;;9.27;7.88;;;;;;;15.54;100.00;156425.34;4941247;28;20028;-81
2022/06/06 05:03:15;;;;;;;11.07;8.57;;;;;;;15.59;100.00;156438.19;4936364;29;20038;-83
2022/06/06 05:06:00;;;;;;;8.73;7.70;;;;;;;15.54;100.00;156425.34;4917207;28;20066;-86
2022/06/06 05:08:28;;;;;;;10.43;8.52;;;;;;;15.56;100.00;156430.50;4945245;29;20591;-83
2022/06/06 05:11:11;;;;;;;11.60;9.20;;;;;;;15.49;100.00;156412.47;4938791;28;20030;-80
2022/06/06 05:14:03;;;;;;;10.73;9.13;;;;;;;15.50;100.00;156415.03;4937671;28;20481;-82
2022/06/06 05:16:58;;;;;;;11.95;10.25;;;;;;;15.54;100.00;156425.34;4935655;29;20044;-81
2022/06/06 05:19:36;;;;;;;12.13;10.45;;;;;;;15.56;100.00;156430.50;4903901;29;20043;-80
2022/06/06 05:22:08;;;;;;;15.77;10.25;;;;;;;15.59;100.00;156438.19;4929908;29;20031;-81
2022/06/06 05:24:52;;;;;;;14.60;10.50;;;;;;;15.71;100.00;156469.09;4938112;28;20035;-82
2022/06/06 05:27:37;;;;;;;13.45;10.60;;;;;;;15.72;100.00;156471.63;4923561;29;20041;-83
2022/06/06 05:30:27;;;;;;;15.27;10.88;;;;;;;15.70;100.00;156466.50;4945349;29;20036;-84
2022/06/06 05:32:59;;;;;;;11.98;10.05;;;;;;;15.71;100.00;156467.81;4954604;28;20031;-80
2022/06/06 05:35:25;;;;;;;16.83;11.17;;;;;;;15.66;100.00;156454.94;4948560;29;20047;-84
2022/06/06 05:38:24;;;;;;;19.55;11.55;;;;;;;15.69;100.00;156463.94;4974260;28;20299;-82
2022/06/06 05:41:17;;;;;;;17.95;11.60;;;;;;;15.80;100.00;156489.72;4943545;28;20070;-82
2022/06/06 05:43:57;;;;;;;16.10;11.38;;;;;;;15.87;100.00;156507.75;4963159;28;20035;-82
2022/06/06 05:46:32;;;;;;;15.13;11.93;;;;;;;15.88;100.00;156510.28;4948909;29;20047;-83
2022/06/06 05:49:47;;;;;;;17.77;12.40;;;;;;;15.95;100.00;156529.66;4947696;28;20039;-81
2022/06/06 05:52:36;;;;;;;17.67;12.60;;;;;;;15.82;100.00;156496.13;4942161;29;20158;-83
2022/06/06 05:55:25;;;;;;;19.42;12.50;;;;;;;15.83;100.00;156497.47;4943554;28;20401;-85
2022/06/06 05:57:56;;;;;;;15.65;12.60;;;;;;;15.81;100.00;156492.31;4947553;29;20110;-81
2022/06/06 06:00:36;;;;;;;18.27;12.38;;;;;;;15.74;100.00;156475.56;4952423;29;20098;-82
2022/06/06 06:03:43;;;;;;;17.50;13.57;;;;;;;15.69;100.00;156462.63;4957085;28;20469;-81
2022/06/06 06:06:28;;;;;;;21.35;14.95;;;;;;;15.66;100.00;156454.94;4928681;29;20054;-83
2022/06/06 06:09:14;;;;;;;23.08;14.38;;;;;;;15.66;100.00;156456.22;4938514;28;20037;-83
2022/06/06 06:11:55;;;;;;;22.90;15.38;;;;;;;15.68;100.00;156461.34;4964374;28;20586;-83
2022/06/06 06:14:47;;;;;;;20.50;14.63;;;;;;;15.68;100.00;156460.09;4939869;29;20878;-82
2022/06/06 06:17:18;;;;;;;23.57;16.00;;;;;;;15.79;100.00;156488.44;4923643;29;20061;-77
2022/06/06 06:19:49;;;;;;;21.10;15.60;;;;;;;15.77;100.00;156484.56;4942722;28;20039;-84
2022/06/06 06:22:17;;;;;;;23.55;16.10;;;;;;;15.92;100.00;156520.63;4947148;28;20035;-81
2022/06/06 06:24:44;;;;;;;21.38;15.38;;;;;;;15.96;100.00;156532.19;4939665;28;20107;-82
2022/06/06 06:27:11;;;;;;;22.30;16.50;;;;;;;16.10;100.00;156565.66;4934771;29;20027;-81
2022/06/06 06:29:37;;;;;;;25.10;15.65;;;;;;;16.16;100.00;156581.09;4942935;28;20035;-82
2022/06/06 06:32:25;;;;;;;23.35;16.15;;;;;;;16.27;100.00;156609.41;4942994;29;20035;-80
2022/06/06 06:35:01;;;;;;;27.17;16.25;;;;;;;16.42;100.00;156646.75;4944397;28;20162;-81
2022/06/06 06:37:42;;;;;;;24.38;16.73;;;;;;;16.52;100.00;156672.53;4930301;29;20043;-82
2022/06/06 06:40:23;;;;;;;25.02;15.90;;;;;;;16.48;100.00;156660.91;4949510;28;20039;-82
2022/06/06 06:43:10;;;;;;;27.05;16.10;;;;;;;16.46;100.00;156657.09;4950113;29;20410;-80
2022/06/06 06:45:50;;;;;;;25.77;14.63;;;;;;;16.39;100.00;156637.75;4931534;28;20078;-82
2022/06/06 06:48:27;;;;;;;24.88;15.38;;;;;;;16.35;100.00;156628.78;4937846;29;20035;-82
2022/06/06 06:51:18;;;;;;;24.13;13.88;;;;;;;16.31;100.00;156619.75;4945222;28;20049;-83
2022/06/06 06:53:56;;;;;;;20.80;12.70;;;;;;;16.26;100.00;156605.59;4944938;28;20482;-83
2022/06/06 06:56:40;;;;;;;22.67;13.13;;;;;;;16.23;100.00;156597.84;4941064;29;20050;-83
2022/06/06 06:59:23;;;;;;;24.55;13.48;;;;;;;16.20;100.00;156590.09;4943893;29;20110;-82
2022/06/06 07:08:32;;;;;;;27.27;15.57;;;;;;;16.37;100.00;156632.59;4937163;29;20043;-85
2022/06/06 07:11:45;;;;;;;25.30;15.15;;;;;;;16.38;100.00;156636.47;4944492;29;20038;-83
2022/06/06 07:14:39;;;;;;;24.30;15.25;;;;;;;16.26;100.00;156605.59;4922358;29;20070;-83
2022/06/06 07:17:08;;;;;;;24.15;15.38;;;;;;;16.12;100.00;156570.81;4940611;29;20046;-87
2022/06/06 07:19:39;;;;;;;23.90;14.93;;;;;;;16.08;100.00;156560.50;4942424;28;20053;-83
2022/06/06 07:22:06;;;;;;;26.27;15.50;;;;;;;15.98;100.00;156534.78;4940594;29;20565;-84
2022/06/06 07:24:31;;;;;;;27.33;15.48;;;;;;;15.96;100.00;156532.19;4942959;29;20044;-82
2022/06/06 07:27:00;;;;;;;26.73;16.08;;;;;;;15.87;100.00;156507.75;4944631;29;20050;-85
2022/06/06 07:29:25;;;;;;;23.10;14.70;;;;;;;15.90;100.00;156515.50;4942955;29;20200;-82
2022/06/06 07:31:54;;;;;;;28.45;14.98;;;;;;;15.83;100.00;156498.72;4935432;28;20161;-79
2022/06/06 07:34:45;;;;;;;24.60;14.73;;;;;;;15.83;100.00;156498.72;4940069;29;20055;-79
2022/06/06 07:37:36;;;;;;;23.50;13.48;;;;;;;15.83;100.00;156497.47;4935608;29;20074;-82
2022/06/06 07:40:07;;;;;;;24.17;13.88;;;;;;;15.80;100.00;156489.72;4943747;29;20064;-84
2022/06/06 07:42:48;;;;;;;24.63;13.23;;;;;;;15.71;100.00;156467.81;4926159;28;20125;-83
2022/06/06 07:45:29;;;;;;;19.98;12.68;;;;;;;15.76;100.00;156480.72;4932163;29;20032;-81
2022/06/06 07:48:07;;;;;;;22.15;12.73;;;;;;;15.71;100.00;156467.81;4930388;29;20048;-82
2022/06/06 07:50:42;;;;;;;17.85;12.43;;;;;;;15.74;100.00;156475.56;4932386;28;20455;-85
2022/06/06 07:53:40;;;;;;;20.77;12.35;;;;;;;15.87;100.00;156507.75;4942133;28;20050;-83
2022/06/06 07:56:24;;;;;;;19.02;11.88;;;;;;;15.80;100.00;156489.72;4931986;29;20074;-84
2022/06/06 07:59:05;;;;;;;20.67;11.18;;;;;;;15.82;100.00;156494.88;4936846;29;20041;-82
2022/06/06 08:01:54;;;;;;;19.65;11.27;;;;;;;15.85;100.00;156503.88;4934503;29;20043;-83
2022/06/06 08:04:40;;;;;;;17.48;11.38;;;;;;;15.90;100.00;156516.75;4892175;29;20043;-82
2022/06/06 08:07:23;;;;;;;14.85;9.82;;;;;;;16.00;100.00;156539.94;4936251;29;20051;-84
2022/06/06 08:10:01;;;;;;;13.60;9.35;;;;;;;16.18;100.00;156586.28;4930630;28;20427;-82
2022/06/06 08:12:39;;;;;;;14.57;9.65;;;;;;;16.46;100.00;156657.09;4942056;29;20027;-82
2022/06/06 08:15:20;;;;;;;15.05;9.32;;;;;;;16.47;100.00;156658.38;4960857;28;20039;-82
2022/06/06 08:18:17;;;;;;;13.23;9.18;;;;;;;16.48;100.00;156662.25;4958109;28;20035;-81
2022/06/06 08:21:08;;;;;;;12.48;8.90;;;;;;;16.67;100.00;156709.88;4924196;28;20044;-82
2022/06/06 08:23:34;;;;;;;15.43;9.55;;;;;;;16.90;100.00;156766.59;4943645;28;20051;-83
2022/06/06 08:26:01;;;;;;;14.43;9.07;;;;;;;17.18;100.00;156836.09;4930602;28;20126;-81
2022/06/06 08:28:31;;;;;;;14.10;9.55;;;;;;;17.43;100.00;156900.53;4954012;28;20035;-83
2022/06/06 08:30:57;;;;;;;12.95;8.95;;;;;;;17.59;100.00;156939.16;4918800;29;20053;-82
2022/06/06 08:33:24;;;;;;;12.43;7.63;;;;;;;17.71;100.00;156970.13;4906032;29;20078;-81
2022/06/06 08:36:07;;;;;;;10.77;7.05;;;;;;;17.59;100.00;156940.44;4941812;28;20491;-81
2022/06/06 08:38:52;;;;;;;9.48;6.88;;;;;;;17.36;100.00;156882.50;4939154;28;20047;-83
2022/06/06 08:41:30;;;;;;;8.68;6.68;;;;;;;17.16;100.00;156830.97;4936865;28;20467;-83
2022/06/06 08:44:06;;;;;;;11.65;6.47;;;;;;;17.25;100.00;156854.16;4919130;29;20043;-82
2022/06/06 08:46:59;;;;;;;7.88;6.05;;;;;;;17.29;100.00;156864.44;4933803;29;20040;-80
2022/06/06 08:53:24;;;;;;;5.85;5.00;;;;;;;17.69;100.00;156966.25;4943797;29;20122;-84
2022/06/06 08:56:05;;;;;;;8.50;5.70;;;;;;;17.70;100.00;156967.53;4934010;28;20040;-83
2022/06/06 08:58:59;;;;;;;6.90;5.15;;;;;;;17.68;100.00;156963.63;4938880;29;20059;-84
2022/06/06 09:02:03;;;;;;;7.60;4.88;;;;;;;17.76;100.00;156982.97;4939727;28;20069;-84
2022/06/06 09:05:00;;;;;;;8.63;5.75;;;;;;;17.75;100.00;156979.13;4936879;29;20134;-81
2022/06/06 09:07:55;;;;;;;10.18;6.07;;;;;;;17.75;100.00;156980.41;4927298;29;20502;-81
2022/06/06 09:10:44;;;;;;;7.20;5.47;;;;;;;17.86;100.00;157008.81;4916767;29;20043;-80
2022/06/06 09:13:28;;;;;;;7.10;5.20;;;;;;;18.02;98.96;157048.75;4958432;28;20050;-80
2022/06/06 09:16:28;;;;;;;8.20;5.30;;;;;;;18.18;98.14;157087.44;4933334;29;20040;-82
2022/06/06 09:19:34;;;;;;;9.95;5.43;;;;;;;18.21;97.94;157096.41;4944454;28;20039;-83
2022/06/06 09:22:09;;;;;;;8.70;5.63;;;;;;;18.14;100.00;157077.09;4911425;29;20035;-76
2022/06/06 09:25:17;;;;;;;6.75;5.50;;;;;;;18.00;97.89;157042.31;4954544;28;20039;-80
2022/06/06 09:28:22;;;;;;;9.60;6.20;;;;;;;17.69;98.01;156964.97;4945737;28;20087;-83
2022/06/06 09:31:27;;;;;;;8.13;5.60;;;;;;;17.60;100.00;156941.78;4949223;28;20502;-82
2022/06/06 09:34:17;;;;;;;9.18;5.78;;;;;;;17.78;100.00;156988.16;4940815;28;20058;-81
2022/06/06 09:37:06;;;;;;;7.80;5.90;;;;;;;18.01;100.00;157044.91;4963722;28;20046;-80
2022/06/06 09:39:50;;;;;;;8.57;5.35;;;;;;;18.19;100.00;157091.28;4956568;28;20048;-79
2022/06/06 09:42:31;;;;;;;7.25;5.55;;;;;;;18.32;100.00;157122.22;4950444;28;20104;-79
2022/06/06 09:44:57;;;;;;;8.23;5.40;;;;;;;18.25;96.26;157105.44;4932507;28;20045;-78
2022/06/06 09:47:35;;;;;;;7.85;5.82;;;;;;;18.23;97.06;157100.28;4949612;28;20035;-81
2022/06/06 09:50:38;;;;;;;8.13;5.10;;;;;;;18.29;100.00;157115.78;4934441;28;20038;-82
2022/06/06 09:53:37;;;;;;;8.57;6.30;;;;;;;18.32;98.02;157123.50;4916901;28;20153;-82
2022/06/06 09:59:22;;;;;;;6.82;5.65;;;;;;;19.16;91.62;157335.00;4956814;28;20138;-81
2022/06/06 10:01:50;;;;;;;7.25;5.63;;;;;;;19.03;93.54;157302.75;4922408;28;20043;-80
2022/06/06 10:04:28;;;;;;;7.43;5.53;;;;;;;19.05;95.92;157306.63;4927475;28;20049;-82
2022/06/06 10:07:07;;;;;;;9.38;5.40;;;;;;;18.99;100.00;157292.44;4921005;29;20131;-78
2022/06/06 10:10:01;;;;;;;10.40;6.20;;;;;;;18.61;94.47;157195.66;4937315;28;20142;-79
2022/06/06 10:12:51;;;;;;;7.78;5.57;;;;;;;18.29;99.94;157115.78;4940048;29;20043;-76
2022/06/06 10:15:40;;;;;;;11.02;5.60;;;;;;;17.96;100.00;157033.28;4911164;29;20103;-77
2022/06/06 10:18:30;;;;;;;11.85;6.70;;;;;;;17.74;100.00;156977.81;4875071;29;20133;-81
2022/06/06 10:21:33;;;;;;;12.65;7.45;;;;;;;17.51;100.00;156919.84;4941443;28;20031;-81
2022/06/06 10:24:32;;;;;;;13.93;8.10;;;;;;;17.58;100.00;156936.63;4906205;29;20027;-76
2022/06/06 10:27:17;;;;;;;11.15;7.22;;;;;;;17.98;100.00;157038.44;4914781;29;20086;-77
2022/06/06 10:30:17;;;;;;;13.02;6.28;;;;;;;18.64;100.00;157203.41;4944959;28;20489;-80
2022/06/06 10:33:02;;;;;;;9.02;6.50;;;;;;;19.05;100.00;157306.63;4938764;28;20457;-78
2022/06/06 10:35:49;;;;;;;7.28;5.88;;;;;;;19.81;100.00;157498.81;4926405;29;20123;-79
2022/06/06 10:38:26;;;;;;;9.10;5.78;;;;;;;20.04;96.78;157555.56;4935819;29;20404;-80
2022/06/06 10:41:15;;;;;;;7.35;5.60;;;;;;;20.19;100.00;157594.31;4953493;28;20023;-81
2022/06/06 10:44:15;;;;;;;7.88;6.10;;;;;;;20.56;100.00;157687.19;4943201;28;20047;-84
2022/06/06 10:47:03;;;;;;;10.18;6.78;;;;;;;20.91;91.00;157775.00;4934831;29;20486;-79
2022/06/06 10:49:59;;;;;;;9.50;6.68;;;;;;;20.97;92.38;157789.22;4956768;28;20096;-80
2022/06/06 10:53:08;;;;;;;7.13;6.10;;;;;;;20.88;95.92;157767.25;4944092;29;20047;-79
2022/06/06 10:56:11;;;;;;;9.63;5.85;;;;;;;20.57;95.84;157688.50;4924083;28;20043;-81
2022/06/06 10:58:59;;;;;;;7.70;5.97;;;;;;;20.13;94.77;157578.78;4937510;29;20039;-84
2022/06/06 11:01:28;;;;;;;8.02;6.10;;;;;;;19.80;95.00;157494.97;4951837;28;20031;-83
2022/06/06 11:04:07;;;;;;;8.38;6.07;;;;;;;19.79;100.00;157493.66;4956486;28;20031;-85
2022/06/06 11:07:03;;;;;;;7.82;6.03;;;;;;;19.79;100.00;157492.38;4951437;29;20050;-84
2022/06/06 11:09:46;;;;;;;9.82;6.30;;;;;;;19.36;100.00;157385.25;4938671;29;20048;-83
2022/06/06 11:12:27;;;;;;;10.48;6.70;;;;;;;19.12;100.00;157323.34;4953449;28;20040;-82
2022/06/06 11:14:54;;;;;;;8.70;6.50;;;;;;;19.10;100.00;157318.22;4960110;28;20038;-85
2022/06/06 11:17:37;;;;;;;10.27;6.65;;;;;;;18.98;100.00;157289.84;4929536;29;20038;-84
2022/06/06 11:20:28;;;;;;;10.02;6.28;;;;;;;18.66;100.00;157208.56;4942413;29;20119;-85
2022/06/06 11:23:21;;;;;;;8.40;5.80;;;;;;;18.45;100.00;157155.72;4955473;28;20037;-86
2022/06/06 11:26:06;;;;;;;12.38;7.05;;;;;;;18.43;100.00;157150.56;4972718;28;20035;-88
2022/06/06 11:29:03;;;;;;;7.00;6.05;;;;;;;18.60;94.22;157193.13;4963095;28;20078;-78
2022/06/06 11:31:47;;;;;;;9.60;6.38;;;;;;;19.95;88.86;157533.66;4972719;28;20063;-83
2022/06/06 11:34:57;;;;;;;7.50;5.90;;;;;;;20.90;84.77;157772.41;4924237;29;20077;-84
2022/06/06 11:37:51;;;;;;;10.20;6.35;;;;;;;20.87;84.00;157763.38;4929950;29;20055;-83
2022/06/06 11:40:49;;;;;;;8.45;6.15;;;;;;;20.47;87.89;157662.66;4939143;29;20027;-81
2022/06/06 11:43:41;;;;;;;9.77;5.80;;;;;;;20.25;84.73;157608.50;4922923;29;20051;-83
2022/06/06 11:46:34;;;;;;;6.65;5.28;;;;;;;20.88;85.19;157767.25;4931724;29;20043;-83
2022/06/06 11:49:25;;;;;;;7.28;5.18;;;;;;;20.75;82.38;157733.69;4913537;29;20117;-84
2022/06/06 11:52:14;;;;;;;8.07;5.53;;;;;;;20.53;80.86;157678.16;4925154;29;20047;-83
2022/06/06 11:55:03;;;;;;;7.22;5.22;;;;;;;20.88;82.78;157767.25;4949645;28;20082;-84
2022/06/06 11:58:00;;;;;;;7.35;4.95;;;;;;;20.89;82.79;157769.84;4941239;29;20509;-79
2022/06/06 12:00:51;;;;;;;6.10;3.63;;;;;;;20.91;81.76;157775.00;4923600;29;20038;-79
2022/06/06 12:03:57;;;;;;;6.40;3.75;;;;;;;21.90;73.32;158022.94;4941952;29;20040;-85
2022/06/06 12:06:38;;;;;;;4.75;3.25;;;;;;;22.44;67.06;158158.59;4946361;29;20097;-84
2022/06/06 12:09:30;;;;;;;3.42;3.13;;;;;;;22.96;65.94;158289.06;4940760;28;20034;-83
2022/06/06 12:12:05;;;;;;;4.13;3.20;;;;;;;23.22;66.19;158356.28;4962092;28;20050;-81
2022/06/06 12:15:08;;;;;;;4.07;3.10;;;;;;;23.28;67.71;158371.84;4931202;29;20039;-81
2022/06/06 12:17:49;;;;;;;6.30;3.30;;;;;;;23.01;65.89;158303.28;4957435;28;20577;-79
2022/06/06 12:20:47;;;;;;;6.97;3.10;;;;;;;23.43;63.87;158409.31;4943403;28;20038;-76
2022/06/06 12:23:21;;;;;;;6.15;2.60;;;;;;;23.52;58.89;158432.53;4938199;29;20036;-77
2022/06/06 12:26:03;;;;;;;3.40;3.10;;;;;;;23.76;64.94;158490.75;4927372;28;20035;-78
2022/06/06 12:28:49;;;;;;;2.28;2.08;;;;;;;23.99;62.04;158550.22;4936086;29;20055;-78
2022/06/06 12:31:24;;;;;;;7.95;2.83;;;;;;;24.19;59.26;158600.66;4947537;28;20035;-77
2022/06/06 12:34:04;;;;;;;3.97;2.38;;;;;;;24.10;54.42;158577.38;4914099;29;20044;-77
2022/06/06 12:36:35;;;;;;;6.10;2.25;;;;;;;24.34;60.40;158638.16;4947628;28;20038;-79